Sponsor Message:
Civil Aviation Forum
My Starred Topics | Profile | New Topic | Forum Index | Help | Search 
Reverse Ops At LAX Today  
User currently offlineArcrftLvr From United States of America, joined Nov 2006, 826 posts, RR: 0
Posted (7 years 7 months 6 days 2 hours ago) and read 2768 times:

Why is LAX on reverse ops (departing to the East on the 6s & 7s) today (4/20)?

5 replies: All unread, jump to last
 
User currently offlineCXB744 From United States of America, joined Apr 2006, 228 posts, RR: 0
Reply 1, posted (7 years 7 months 6 days 2 hours ago) and read 2754 times:

It has been coming straight down all morning. 6's & 7's are the "storm" runways. It's cleared this afternoon so I expect they have reverted to normal now.


What is it? It's A 747-400, but that's not important right now.
User currently offlineLAXspotter From India, joined Jan 2007, 3650 posts, RR: 5
Reply 2, posted (7 years 7 months 6 days 2 hours ago) and read 2741 times:

Well as of 2PM, its all back to normal ops, when exactly where they using the 6's and 7's?

My friend who lives right under the downwind leg of the Approach to the 24's said that its been like for a couple of hours.



"Patriotism is the last refuge of the scoundrel" Samuel Johnson
User currently offlineOPNLguy From , joined Dec 1969, posts, RR:
Reply 3, posted (7 years 7 months 6 days 2 hours ago) and read 2723 times:

Quoting ArcrftLvr (Thread starter):
Why is LAX on reverse ops (departing to the East on the 6s & 7s) today (4/20)?

Winds were from the E and SE most of the day, but started gusting around 1830Z such that the tailwind component for using 24L/R and 25L/R became an issue..

KLAX 202050Z 14009G15KT 10SM FEW024 BKN041 BKN060 13/09 A2987 RMK AO2 SLP112 60010 T01280089 56009
KLAX 201950Z 13007KT 10SM FEW026 BKN036 BKN065 12/09 A2987 RMK AO2 SLP114 T01220089
KLAX 201850Z 13007KT 10SM FEW015 BKN035 BKN050 12/09 A2988 RMK AO2 RAE33 SLP117 P0010 T01170094
KLAX 201833Z 08009G17KT 8SM FEW015 BKN035 BKN050 11/09 A2988 RMK AO2 RAE33 P0010
KLAX 201750Z 11005KT 6SM -RA BR BKN025 BKN035 OVC047 12/09 A2990 RMK AO2 SLP123 BKN025 V SCT P0010 60022 T01170089 10122 20111 53013
KLAX 201713Z 14007KT 5SM -RA BR BKN025 BKN035 OVC047 11/08 A2988 RMK AO2 P0004
KLAX 201650Z 14008KT 6SM -RA BR SCT012 BKN036 OVC047 11/09 A2987 RMK AO2 SLP115 P0009 T01110089
KLAX 201550Z 16007KT 5SM -RA BR FEW009 BKN050 OVC080 12/08 A2986 RMK AO2 RAB17 SLP111 P0002 T01170083
KLAX 201525Z 11007KT 10SM -RA FEW009 BKN050 OVC080 12/08 A2986 RMK AO2 RAB17 P0000 $
KLAX 201450Z 10006KT 10SM SCT010 BKN050 OVC150 12/07 A2986 RMK AO2 SLP109 60001 T01220072 56003 $
KLAX 201350Z 16003KT 10SM FEW010 SCT030 BKN055 BKN150 11/07 A2986 RMK AO2 SLP109 T01110072
KLAX 201329Z 18006KT 10SM SCT023 BKN030 BKN055 OVC150 12/08 A2986 RMK AO2
KLAX 201250Z 20005KT 10SM FEW010 BKN020 OVC040 12/07 A2986 RMK AO2 RAE36 SLP108 P0001 T01170072
KLAX 201231Z 21003KT 10SM -RA FEW010 BKN020 OVC040 11/08 A2986 RMK AO2 P0001

[Edited 2007-04-20 23:52:58]

User currently offlineJayDub From , joined Dec 1969, posts, RR:
Reply 4, posted (7 years 7 months 6 days 2 hours ago) and read 2690 times:

Quoting OPNLguy (Reply 3):
Winds were from the E and SE most of the day, but started gusting around 1830Z suc that the tailwind component for using 24L/R and 25L/R became an issue..

Kinda wished I had a record function on my ASD today. I had all inbounds to LAX filtered (I was anticipating the possible reconfig and wanted to make sure I caught it when it happened) and it was kinda interesting to watch everyone work into the east traffic.


User currently offlineAA61Hvy From United States of America, joined Nov 1999, 13977 posts, RR: 57
Reply 5, posted (7 years 7 months 6 days 1 hour ago) and read 2617 times:

Ocassionally I've seen some of the big boys, QF and NZ using the 7's to depart..Granted it was like at 2330 but still cool none the less... My apartment is much quieter when 7's are being used...


Go big or go home
Top Of Page
Forum Index

This topic is archived and can not be replied to any more.

Printer friendly format

Similar topics:More similar topics...
Backfire While Starting WN Jet At LAX Today posted Thu Aug 24 2006 08:24:51 by 747hogg
Air France Ops At LAX posted Thu Jun 1 2006 12:39:56 by AirxLiban
Korean Air Lines Ops At LAX posted Tue May 30 2006 07:21:14 by Access-Air
Was Spotting At LAX Today... posted Mon Nov 14 2005 04:59:11 by ZOTAN
727 Landing At LAX Today posted Wed Aug 31 2005 01:49:59 by MDW22L31C
JetBlue At LAX Today?!?!?!? posted Mon Aug 8 2005 09:12:33 by Wilax
NW DC-10 At LAX Today posted Fri Dec 31 2004 05:21:33 by N229nw
Independence Air RJ At LAX Today posted Fri Dec 17 2004 08:04:17 by NZblue
QF Abort At LAX Today posted Tue Aug 31 2004 06:46:57 by Qantasguy
Frontier JetExpress At LAX Today posted Sat Jun 19 2004 08:00:31 by AirplaneBoy